Time;durP1;ratioP1;P1;durP2;ratioP2;P2;SDS_P1;SDS_P2;PMS_P1;PMS_P2;Temp;Humidity;BMP_temperature;BMP_pressure;BME280_temperature;BME280_humidity;BME280_pressure;Samples;Min_cycle;Max_cycle;Signal;HPM_P1;HPM_P2
2020/12/29 00:03:48;;;;;;;6.20;3.40;;;;;;;6.92;100.00;93599.09;10503759;28;20036;-78
2020/12/29 00:08:48;;;;;;;5.40;3.10;;;;;;;7.01;100.00;93610.78;10489065;28;20036;-78
2020/12/29 00:13:49;;;;;;;4.80;3.33;;;;;;;7.19;100.00;93623.47;10488572;28;20032;-78
2020/12/29 00:18:49;;;;;;;6.17;2.83;;;;;;;7.33;100.00;93661.03;10488756;28;20048;-79
2020/12/29 00:23:51;;;;;;;5.33;2.67;;;;;;;7.01;100.00;93673.00;10488879;28;20064;-79
2020/12/29 00:28:52;;;;;;;7.03;3.63;;;;;;;7.14;100.00;93674.25;10489503;28;20356;-79
2020/12/29 00:33:57;;;;;;;5.80;3.75;;;;;;;7.23;100.00;93695.88;10489599;28;20108;-79
2020/12/29 00:38:58;;;;;;;7.10;3.95;;;;;;;7.39;100.00;93698.44;10504705;28;20033;-79
2020/12/29 00:43:58;;;;;;;7.20;2.60;;;;;;;7.41;100.00;93677.53;10489201;28;20028;-78
2020/12/29 00:48:59;;;;;;;5.57;2.70;;;;;;;7.55;100.00;93664.34;10488167;28;20278;-79
2020/12/29 00:54:01;;;;;;;6.80;2.78;;;;;;;7.58;100.00;93653.91;10487993;28;20275;-77
2020/12/29 00:59:01;;;;;;;3.63;2.28;;;;;;;7.52;100.00;93639.78;10470803;28;20032;-78
2020/12/29 01:04:02;;;;;;;3.83;2.10;;;;;;;7.62;100.00;93606.78;10487975;28;20028;-78
2020/12/29 01:09:02;;;;;;;2.15;1.80;;;;;;;7.64;96.47;93595.81;10487052;28;20043;-78
2020/12/29 01:14:02;;;;;;;5.22;2.22;;;;;;;7.73;96.82;93590.66;10487280;28;20107;-77
2020/12/29 01:19:03;;;;;;;5.13;2.55;;;;;;;7.79;100.00;93568.13;10487266;28;20128;-78
2020/12/29 01:24:03;;;;;;;4.10;2.25;;;;;;;7.78;100.00;93545.13;10487067;28;20460;-78
2020/12/29 01:29:04;;;;;;;4.43;2.22;;;;;;;7.75;100.00;93553.72;10490742;28;20112;-78
2020/12/29 01:34:04;;;;;;;3.92;1.80;;;;;;;7.56;100.00;93597.22;10495021;28;20024;-77
2020/12/29 01:39:04;;;;;;;1.33;0.95;;;;;;;7.76;97.08;93590.06;10494940;28;20021;-78
2020/12/29 01:44:16;;;;;;;4.37;1.50;;;;;;;7.81;100.00;93624.78;10494012;28;20042;-78
2020/12/29 01:49:17;;;;;;;2.67;1.55;;;;;;;7.95;99.00;93606.19;10494000;28;20111;-78
2020/12/29 01:54:18;;;;;;;2.63;1.60;;;;;;;8.27;95.51;93624.28;10510014;28;20027;-78
2020/12/29 01:59:18;;;;;;;3.35;1.75;;;;;;;8.29;96.66;93638.19;10476197;28;20031;-78
2020/12/29 02:04:19;;;;;;;2.75;1.38;;;;;;;8.37;94.58;93626.06;10492930;28;20027;-77
2020/12/29 02:09:19;;;;;;;0.93;0.70;;;;;;;8.48;88.41;93618.72;10475724;28;20028;-78
2020/12/29 02:14:20;;;;;;;0.67;0.60;;;;;;;8.62;87.85;93614.25;10493668;28;20024;-79
2020/12/29 02:19:20;;;;;;;2.83;1.17;;;;;;;8.82;88.27;93628.44;10493530;28;20313;-78
2020/12/29 02:24:20;;;;;;;2.00;0.93;;;;;;;8.85;84.53;93626.00;10509410;28;20029;-78
2020/12/29 02:29:21;;;;;;;3.80;1.73;;;;;;;8.86;90.66;93611.53;10493418;28;20105;-78
2020/12/29 02:34:21;;;;;;;3.03;1.40;;;;;;;8.81;88.54;93618.84;10509281;28;20032;-79
2020/12/29 02:39:21;;;;;;;3.27;1.53;;;;;;;8.76;90.96;93638.44;10492046;28;20089;-78
2020/12/29 02:44:22;;;;;;;2.20;1.50;;;;;;;8.72;91.92;93638.25;10492354;28;20036;-79
2020/12/29 02:49:22;;;;;;;2.30;1.53;;;;;;;8.61;92.12;93633.28;10491509;28;20036;-78
2020/12/29 02:54:26;;;;;;;1.98;1.10;;;;;;;8.62;91.93;93659.78;10491099;28;20078;-78
2020/12/29 02:59:26;;;;;;;1.73;1.58;;;;;;;8.56;92.84;93652.91;10491779;28;20032;-78
2020/12/29 03:04:27;;;;;;;4.15;1.70;;;;;;;8.59;92.77;93667.59;10490985;28;20074;-78
2020/12/29 03:09:27;;;;;;;9.10;2.80;;;;;;;8.60;90.88;93656.59;10491169;28;20045;-78
2020/12/29 03:14:27;;;;;;;3.17;1.10;;;;;;;8.58;89.29;93674.03;10491429;28;20107;-78
2020/12/29 03:19:28;;;;;;;0.80;0.80;;;;;;;8.61;88.81;93684.16;10473569;28;20048;-79
2020/12/29 03:24:28;;;;;;;3.27;1.60;;;;;;;8.57;91.00;93712.59;10490713;28;20385;-79
2020/12/29 03:29:28;;;;;;;2.93;1.20;;;;;;;8.56;91.03;93695.75;10490984;28;20094;-79
2020/12/29 03:34:37;;;;;;;1.47;0.90;;;;;;;8.54;91.88;93703.28;10490166;28;20021;-78
2020/12/29 03:39:38;;;;;;;1.45;1.10;;;;;;;8.50;93.50;93681.63;10492808;28;20067;-78
2020/12/29 03:44:39;;;;;;;2.90;1.52;;;;;;;8.29;95.04;93699.78;10489673;28;20547;-78
2020/12/29 03:49:39;;;;;;;3.43;1.30;;;;;;;8.26;94.81;93689.63;10488965;28;20029;-78
2020/12/29 03:54:39;;;;;;;2.37;1.30;;;;;;;8.32;93.97;93701.88;10489362;28;20267;-78
2020/12/29 03:59:40;;;;;;;2.03;1.13;;;;;;;8.33;93.31;93697.31;10489581;28;20032;-78
2020/12/29 04:04:40;;;;;;;8.57;1.37;;;;;;;8.38;92.79;93706.06;10471095;28;20867;-78
2020/12/29 04:09:41;;;;;;;22.57;1.73;;;;;;;8.38;92.19;93700.72;10471299;28;20021;-78
2020/12/29 04:14:41;;;;;;;9.02;1.75;;;;;;;8.45;92.31;93691.59;10489399;28;20028;-78
2020/12/29 04:19:42;;;;;;;12.53;1.83;;;;;;;8.44;89.57;93706.03;10489159;28;20056;-78
2020/12/29 04:24:42;;;;;;;5.83;1.70;;;;;;;8.54;89.36;93725.50;10488908;28;20323;-78
2020/12/29 04:29:43;;;;;;;3.10;1.67;;;;;;;8.68;85.56;93714.09;10489057;28;20274;-78
2020/12/29 04:34:47;;;;;;;4.13;1.83;;;;;;;8.73;84.63;93748.84;10488233;28;20115;-79
2020/12/29 04:39:47;;;;;;;4.13;0.88;;;;;;;8.78;76.40;93735.41;10488222;28;20075;-78
2020/12/29 04:44:47;;;;;;;5.97;0.87;;;;;;;8.92;74.40;93745.41;10488689;28;20136;-78
2020/12/29 04:49:48;;;;;;;2.50;0.80;;;;;;;9.05;72.06;93761.59;10488596;28;20027;-78
2020/12/29 04:54:52;;;;;;;8.60;1.45;;;;;;;9.09;74.43;93742.28;10488454;28;20031;-78
2020/12/29 04:59:53;;;;;;;10.85;1.38;;;;;;;9.09;73.51;93731.56;10487577;28;20036;-78
2020/12/29 05:04:53;;;;;;;2.47;0.60;;;;;;;9.15;66.86;93757.19;10494706;28;20430;-78
2020/12/29 05:09:54;;;;;;;1.07;0.63;;;;;;;9.26;66.25;93737.19;10495691;28;20029;-78
2020/12/29 05:14:55;;;;;;;1.80;0.35;;;;;;;9.37;64.71;93770.84;10495584;28;20024;-77
2020/12/29 05:19:55;;;;;;;4.10;0.90;;;;;;;9.45;67.09;93737.22;10495072;28;20053;-78
2020/12/29 05:24:56;;;;;;;2.77;0.70;;;;;;;9.45;64.55;93742.56;10531125;28;20028;-78
2020/12/29 05:29:57;;;;;;;1.33;0.65;;;;;;;9.49;64.55;93758.88;10536414;28;20071;-78
2020/12/29 05:34:58;;;;;;;2.65;0.70;;;;;;;9.38;68.20;93720.69;10535258;28;20116;-76
2020/12/29 05:39:58;;;;;;;7.47;1.35;;;;;;;9.22;68.99;93738.88;10551205;28;20170;-77
2020/12/29 05:45:05;;;;;;;2.13;0.52;;;;;;;9.21;67.33;93721.22;10535494;28;20024;-77
2020/12/29 05:50:06;;;;;;;2.03;0.70;;;;;;;9.30;69.58;93754.31;10534805;28;20098;-76
2020/12/29 05:55:08;;;;;;;2.10;0.80;;;;;;;9.40;68.56;93753.38;10535266;28;20051;-77
2020/12/29 06:00:09;;;;;;;2.53;0.90;;;;;;;9.41;67.28;93750.41;10534283;28;20117;-76
2020/12/29 06:05:09;;;;;;;7.60;1.10;;;;;;;9.37;70.25;93741.34;10534146;28;20119;-77
2020/12/29 06:10:12;;;;;;;3.10;0.65;;;;;;;9.43;66.88;93760.81;10534633;28;20020;-76
2020/12/29 06:15:21;;;;;;;2.13;1.08;;;;;;;9.57;66.22;93753.66;10491844;28;20456;-77
2020/12/29 06:20:21;;;;;;;8.20;1.00;;;;;;;9.69;68.07;93777.38;10496683;28;20431;-76
2020/12/29 06:25:22;;;;;;;3.75;0.88;;;;;;;9.71;67.29;93785.13;10533093;28;20028;-76
2020/12/29 06:30:23;;;;;;;0.68;0.50;;;;;;;9.85;64.68;93780.63;10498967;28;20031;-77
2020/12/29 06:35:23;;;;;;;7.20;1.17;;;;;;;9.99;63.87;93777.19;10491752;28;20020;-77
2020/12/29 06:40:27;;;;;;;4.57;0.98;;;;;;;10.14;64.81;93771.56;10491300;28;20024;-76
2020/12/29 06:45:33;;;;;;;2.38;0.80;;;;;;;10.24;62.83;93800.13;10473918;28;20115;-76
2020/12/29 06:50:34;;;;;;;4.90;1.02;;;;;;;10.41;63.61;93808.50;10473141;28;20021;-76
2020/12/29 06:55:39;;;;;;;4.20;0.65;;;;;;;10.48;61.59;93821.53;10510205;28;20024;-77
2020/12/29 07:00:40;;;;;;;4.38;1.70;;;;;;;10.52;62.83;93805.63;10531054;28;20086;-77
2020/12/29 07:05:40;;;;;;;1.37;0.70;;;;;;;10.55;61.78;93834.59;10530959;28;20465;-77
2020/12/29 07:10:42;;;;;;;7.23;1.00;;;;;;;10.60;60.83;93831.81;10531898;28;20277;-76
2020/12/29 07:15:50;;;;;;;7.70;1.38;;;;;;;10.78;61.62;93860.50;10512886;28;20031;-75
2020/12/29 07:20:56;;;;;;;3.63;1.02;;;;;;;10.85;61.83;93845.91;10531842;28;20056;-75
2020/12/29 07:25:58;;;;;;;6.32;1.60;;;;;;;10.90;59.36;93845.81;10531389;28;20261;-75
2020/12/29 07:30:59;;;;;;;3.53;0.70;;;;;;;11.07;58.71;93875.59;10531351;28;20028;-75
2020/12/29 07:35:59;;;;;;;3.03;0.30;;;;;;;11.29;56.44;93850.69;10530454;28;20081;-75
2020/12/29 07:41:02;;;;;;;2.72;0.75;;;;;;;11.47;56.35;93872.44;10522152;28;20028;-76
2020/12/29 07:46:03;;;;;;;5.30;0.80;;;;;;;11.68;55.95;93886.25;10503829;28;20020;-76
2020/12/29 07:51:04;;;;;;;2.22;0.52;;;;;;;11.86;55.55;93894.50;10506150;28;20036;-75
2020/12/29 07:56:04;;;;;;;4.15;1.45;;;;;;;12.02;55.57;93885.03;10493690;28;20439;-75
2020/12/29 08:01:05;;;;;;;4.07;1.30;;;;;;;12.07;54.94;93917.25;10490938;28;20103;-75
2020/12/29 08:06:14;;;;;;;5.20;0.55;;;;;;;12.33;53.36;93886.25;10511691;28;20789;-75
2020/12/29 08:11:21;;;;;;;1.08;0.57;;;;;;;12.92;52.24;93910.44;10517710;28;20373;-75
2020/12/29 08:16:21;;;;;;;5.60;1.10;;;;;;;13.59;51.24;93906.84;10487461;28;20029;-75
2020/12/29 08:21:22;;;;;;;3.93;0.63;;;;;;;13.95;49.07;93908.53;10488224;28;20049;-75
2020/12/29 08:26:23;;;;;;;2.90;0.85;;;;;;;14.50;48.56;93907.16;10495419;28;20767;-74
2020/12/29 08:31:27;;;;;;;5.63;1.27;;;;;;;15.30;44.76;93905.94;10514479;28;20158;-74
2020/12/29 08:36:28;;;;;;;4.20;0.65;;;;;;;15.63;43.24;93915.38;10504309;28;20107;-76
2020/12/29 08:41:36;;;;;;;2.42;1.10;;;;;;;16.57;43.09;93890.75;10494456;28;20020;-77
2020/12/29 08:46:37;;;;;;;1.73;0.82;;;;;;;15.94;42.34;93877.19;10488808;28;20089;-76
2020/12/29 08:51:43;;;;;;;2.97;0.82;;;;;;;15.73;43.39;93917.75;10500632;28;20028;-75
2020/12/29 08:56:44;;;;;;;3.92;0.40;;;;;;;15.59;42.60;93923.38;10510054;28;20020;-75
2020/12/29 09:01:59;;;;;;;1.92;0.35;;;;;;;15.72;42.20;93943.25;10527856;28;20033;-75
2020/12/29 09:07:10;;;;;;;2.72;0.50;;;;;;;15.55;41.77;93928.63;10528470;28;20078;-75
2020/12/29 09:12:16;;;;;;;2.75;0.43;;;;;;;15.40;43.12;93940.00;10533171;28;20142;-75
2020/12/29 09:17:17;;;;;;;1.85;0.65;;;;;;;15.94;42.62;93915.13;10527934;28;20040;-75
2020/12/29 09:22:18;;;;;;;3.45;0.80;;;;;;;15.75;44.42;93961.53;10528561;28;20032;-75
2020/12/29 09:27:31;;;;;;;1.83;0.30;;;;;;;15.62;43.89;93965.28;10528385;28;20945;-75
2020/12/29 09:32:32;;;;;;;1.13;0.50;;;;;;;15.40;44.34;93947.34;10528000;28;20301;-75
2020/12/29 09:37:32;;;;;;;5.60;1.10;;;;;;;15.61;43.94;93939.31;10527873;28;20111;-75
2020/12/29 09:42:32;;;;;;;2.33;0.40;;;;;;;16.16;43.34;93918.66;10527913;28;20085;-75
2020/12/29 09:47:33;;;;;;;4.30;0.80;;;;;;;17.22;40.87;93914.81;10527816;28;20652;-75
2020/12/29 09:52:33;;;;;;;2.23;0.40;;;;;;;18.46;38.67;93914.88;10533921;28;20024;-75
2020/12/29 09:57:34;;;;;;;0.67;0.30;;;;;;;18.77;37.22;93927.06;10535327;28;20110;-75
2020/12/29 10:02:34;;;;;;;1.60;0.75;;;;;;;20.24;36.19;93911.00;10534789;28;20023;-76
2020/12/29 10:07:35;;;;;;;2.73;0.40;;;;;;;21.25;33.77;93899.50;10535017;28;20118;-75
2020/12/29 10:12:35;;;;;;;2.53;0.40;;;;;;;21.22;32.76;93902.91;10534089;28;20039;-75
2020/12/29 10:17:37;;;;;;;3.63;0.43;;;;;;;20.52;33.82;93907.34;10534375;28;20044;-75
2020/12/29 10:22:37;;;;;;;4.78;0.55;;;;;;;23.03;30.81;93918.28;10533910;28;20092;-76
2020/12/29 10:27:37;;;;;;;4.50;0.63;;;;;;;24.40;29.06;93907.88;10533587;28;20471;-76
2020/12/29 10:32:39;;;;;;;1.67;0.50;;;;;;;24.99;27.55;93894.13;10533935;28;20262;-76
2020/12/29 10:37:39;;;;;;;1.00;0.30;;;;;;;25.86;26.44;93908.16;10515248;28;20066;-76
2020/12/29 10:42:39;;;;;;;10.00;2.10;;;;;;;26.71;26.60;93894.75;10532655;28;20111;-76
2020/12/29 10:47:40;;;;;;;1.10;0.40;;;;;;;25.62;25.89;93907.72;10533207;28;20020;-76
2020/12/29 10:52:40;;;;;;;2.43;0.40;;;;;;;25.11;26.78;93911.44;10532541;28;20328;-76
2020/12/29 10:57:41;;;;;;;0.80;0.30;;;;;;;24.90;26.83;93907.44;10527956;28;20021;-76
2020/12/29 11:02:41;;;;;;;1.43;0.50;;;;;;;24.64;27.45;93917.47;10490139;28;20090;-76
2020/12/29 11:07:41;;;;;;;2.63;0.30;;;;;;;23.19;28.72;93909.09;10490309;28;20323;-76
2020/12/29 11:12:42;;;;;;;0.63;0.20;;;;;;;23.41;28.14;93907.41;10489918;28;20032;-76
2020/12/29 11:17:42;;;;;;;1.97;0.80;;;;;;;22.53;29.39;93906.69;10498026;28;20128;-76
2020/12/29 11:22:44;;;;;;;3.50;0.60;;;;;;;22.54;29.72;93902.78;10506265;28;20135;-78
2020/12/29 11:27:45;;;;;;;0.85;0.40;;;;;;;21.38;30.99;93907.50;10500563;28;20082;-77
2020/12/29 11:32:46;;;;;;;2.07;0.70;;;;;;;20.39;33.20;93906.66;10488628;28;20050;-76
2020/12/29 11:37:46;;;;;;;2.25;0.70;;;;;;;22.35;30.23;93901.75;10489205;28;20028;-76
2020/12/29 11:42:46;;;;;;;3.60;0.70;;;;;;;22.74;30.21;93902.66;10488731;28;20029;-76
2020/12/29 11:47:48;;;;;;;2.87;0.70;;;;;;;22.77;29.99;93889.00;10489967;28;20082;-76
2020/12/29 11:52:48;;;;;;;3.63;0.30;;;;;;;23.28;29.10;93909.63;10507399;28;20501;-76
2020/12/29 11:57:49;;;;;;;1.17;0.40;;;;;;;24.00;27.88;93893.88;10471541;28;20033;-78
2020/12/29 12:02:49;;;;;;;1.07;0.53;;;;;;;23.20;29.46;93889.53;10488751;28;20029;-77
2020/12/29 12:07:49;;;;;;;1.80;0.67;;;;;;;20.95;31.39;93897.34;10488580;28;20028;-75
2020/12/29 12:12:50;;;;;;;1.00;0.57;;;;;;;18.25;35.85;93907.66;10487294;28;20376;-75
2020/12/29 12:17:50;;;;;;;5.30;0.90;;;;;;;18.01;36.55;93922.06;10520906;28;20032;-75
2020/12/29 12:22:51;;;;;;;5.83;0.63;;;;;;;17.91;37.74;93928.72;10527727;28;20483;-75
2020/12/29 12:27:51;;;;;;;1.30;0.67;;;;;;;17.76;38.40;93948.41;10527587;28;20277;-75
2020/12/29 12:32:51;;;;;;;1.87;0.40;;;;;;;16.64;38.59;93936.34;10527856;28;20127;-76
2020/12/29 12:37:52;;;;;;;5.63;1.20;;;;;;;16.74;39.54;93948.72;10527379;28;20299;-75
2020/12/29 12:42:52;;;;;;;1.87;0.53;;;;;;;16.80;38.46;93952.84;10528076;28;20027;-76
2020/12/29 12:47:53;;;;;;;7.37;0.77;;;;;;;16.78;39.34;93952.38;10528636;28;20097;-75
2020/12/29 12:52:53;;;;;;;1.10;0.50;;;;;;;16.40;39.08;93967.63;10527103;28;20277;-75
2020/12/29 12:57:53;;;;;;;2.80;0.57;;;;;;;15.81;40.37;93971.13;10526484;28;20028;-75
2020/12/29 13:02:54;;;;;;;5.23;1.10;;;;;;;16.29;39.96;93988.13;10502447;28;20032;-75
2020/12/29 13:07:54;;;;;;;1.90;0.70;;;;;;;16.07;40.25;93975.63;10486475;28;20036;-75
2020/12/29 13:12:54;;;;;;;0.73;0.40;;;;;;;15.82;41.54;93990.88;10486295;28;20024;-75
2020/12/29 13:17:55;;;;;;;5.63;0.80;;;;;;;15.54;41.19;93997.50;10468056;28;20106;-75
2020/12/29 13:22:55;;;;;;;3.60;0.30;;;;;;;15.26;41.99;93991.63;10487795;28;20078;-75
2020/12/29 13:27:56;;;;;;;1.02;0.40;;;;;;;15.33;41.79;94001.97;10493838;28;20785;-76
2020/12/29 13:32:57;;;;;;;2.30;0.98;;;;;;;15.53;41.33;93986.94;10494181;28;20108;-76
2020/12/29 13:37:58;;;;;;;2.95;0.38;;;;;;;15.22;41.56;94017.75;10493511;28;20180;-76
2020/12/29 13:42:59;;;;;;;2.73;1.00;;;;;;;15.02;42.65;94008.38;10493587;28;20031;-75
2020/12/29 13:47:59;;;;;;;2.00;0.63;;;;;;;15.20;42.14;94006.47;10493211;28;20024;-75
2020/12/29 13:52:59;;;;;;;8.50;1.07;;;;;;;15.18;42.48;94014.09;10475080;28;20017;-74
2020/12/29 13:58:00;;;;;;;5.67;1.23;;;;;;;15.09;42.18;94013.31;10493098;28;20035;-76
2020/12/29 14:03:00;;;;;;;3.00;0.73;;;;;;;14.79;42.52;94024.78;10493390;28;20032;-75
2020/12/29 14:08:02;;;;;;;5.33;1.00;;;;;;;14.67;43.53;94032.69;10492974;28;21120;-75
2020/12/29 14:13:03;;;;;;;2.30;0.50;;;;;;;14.54;43.57;94042.53;10492562;28;20025;-76
2020/12/29 14:18:03;;;;;;;1.73;0.82;;;;;;;14.35;43.61;94042.78;10491848;28;20055;-75
2020/12/29 14:23:04;;;;;;;3.90;1.07;;;;;;;14.38;43.90;94046.78;10492335;28;20039;-75
2020/12/29 14:28:04;;;;;;;9.40;1.73;;;;;;;14.37;44.38;94040.56;10491493;28;20263;-75
2020/12/29 14:33:04;;;;;;;4.10;1.17;;;;;;;14.42;44.46;94039.63;10491899;28;20028;-75
2020/12/29 14:38:05;;;;;;;2.03;0.87;;;;;;;14.23;44.54;94045.28;10491414;28;20031;-75
2020/12/29 14:43:05;;;;;;;3.33;0.90;;;;;;;14.15;45.06;94047.66;10490896;28;20036;-75
2020/12/29 14:48:05;;;;;;;10.13;2.00;;;;;;;14.05;45.08;94041.72;10512251;28;20028;-75
2020/12/29 14:53:06;;;;;;;4.80;0.83;;;;;;;13.91;45.32;94049.94;10532466;28;20257;-75
2020/12/29 14:58:06;;;;;;;4.67;1.20;;;;;;;13.94;45.17;94043.88;10532557;28;20266;-75
2020/12/29 15:03:07;;;;;;;3.20;1.20;;;;;;;13.80;45.72;94052.09;10530290;28;20665;-76
2020/12/29 15:08:07;;;;;;;1.97;0.90;;;;;;;13.81;45.45;94057.22;10527408;28;20111;-75
2020/12/29 15:13:07;;;;;;;3.73;1.20;;;;;;;13.73;45.53;94049.84;10513983;28;20020;-75
2020/12/29 15:18:17;;;;;;;6.27;2.10;;;;;;;13.81;46.20;94051.00;10528250;28;20356;-75
2020/12/29 15:23:18;;;;;;;9.50;1.45;;;;;;;13.90;44.94;94037.53;10485554;28;20091;-75
2020/12/29 15:28:18;;;;;;;4.23;1.00;;;;;;;13.81;45.18;94049.09;10429740;28;20029;-75
2020/12/29 15:33:19;;;;;;;3.33;1.57;;;;;;;13.74;45.44;94064.94;10445048;28;20274;-75
2020/12/29 15:38:19;;;;;;;8.10;1.73;;;;;;;13.63;45.64;94074.41;10455065;28;20111;-75
2020/12/29 15:43:19;;;;;;;4.87;1.30;;;;;;;13.70;45.40;94080.16;10466776;28;20283;-75
2020/12/29 15:48:20;;;;;;;12.77;1.88;;;;;;;13.72;45.18;94082.56;10446718;28;20283;-74
2020/12/29 15:53:20;;;;;;;4.57;1.60;;;;;;;13.73;45.53;94105.75;10448918;28;20029;-74
2020/12/29 15:58:20;;;;;;;5.57;1.50;;;;;;;13.60;45.85;94085.81;10449025;28;20271;-74
2020/12/29 16:03:21;;;;;;;4.30;1.23;;;;;;;13.56;45.63;94101.03;10470918;28;20302;-74
2020/12/29 16:08:21;;;;;;;3.30;0.98;;;;;;;13.63;45.69;94112.19;10520122;28;20653;-74
2020/12/29 16:13:22;;;;;;;7.80;1.17;;;;;;;13.58;45.46;94098.84;10488036;28;20021;-75
2020/12/29 16:18:22;;;;;;;3.27;0.93;;;;;;;13.54;45.45;94095.16;10501476;28;20048;-75
2020/12/29 16:23:22;;;;;;;5.57;0.90;;;;;;;13.58;45.45;94102.31;10529345;28;20066;-75
2020/12/29 16:28:23;;;;;;;2.77;1.40;;;;;;;13.57;45.56;94116.13;10529312;28;20560;-74
2020/12/29 16:33:23;;;;;;;2.50;1.00;;;;;;;13.53;46.10;94123.25;10518140;28;20286;-75
2020/12/29 16:38:24;;;;;;;6.22;0.98;;;;;;;13.47;46.02;94127.97;10527651;28;20349;-75
2020/12/29 16:43:25;;;;;;;3.63;1.50;;;;;;;13.51;46.03;94128.97;10528199;28;20566;-74
2020/12/29 16:48:25;;;;;;;3.25;1.90;;;;;;;13.42;46.33;94139.69;10528526;28;20114;-74
2020/12/29 16:53:25;;;;;;;4.80;1.40;;;;;;;13.44;46.33;94159.06;10528741;28;20395;-74
2020/12/29 16:58:26;;;;;;;3.70;0.73;;;;;;;13.43;45.98;94152.06;10531403;28;20032;-74
2020/12/29 17:03:26;;;;;;;2.57;1.37;;;;;;;13.42;46.54;94174.75;10536383;28;20042;-75
2020/12/29 17:08:26;;;;;;;2.37;1.27;;;;;;;13.44;46.78;94161.00;10537382;28;20028;-75
2020/12/29 17:13:28;;;;;;;14.27;4.03;;;;;;;13.30;47.62;94161.00;10519260;28;20262;-76
2020/12/29 17:18:28;;;;;;;10.98;3.53;;;;;;;13.11;48.08;94175.41;10536176;28;20036;-75
2020/12/29 17:23:29;;;;;;;13.37;3.87;;;;;;;13.11;48.13;94175.41;10516607;28;20105;-75
2020/12/29 17:28:30;;;;;;;11.05;5.18;;;;;;;13.01;48.61;94166.75;10514952;28;20286;-74
2020/12/29 17:33:31;;;;;;;11.60;4.30;;;;;;;12.89;49.30;94164.56;10475907;28;20020;-75
2020/12/29 17:38:31;;;;;;;5.20;1.55;;;;;;;12.92;48.71;94164.78;10494027;28;20043;-74
2020/12/29 17:43:33;;;;;;;1.57;0.47;;;;;;;13.03;48.08;94165.34;10493645;28;20024;-75
2020/12/29 17:48:33;;;;;;;4.05;1.55;;;;;;;13.04;48.18;94185.81;10493479;28;20282;-74
2020/12/29 17:53:33;;;;;;;3.37;1.47;;;;;;;12.99;48.33;94170.56;10493218;28;20027;-75
2020/12/29 17:58:36;;;;;;;3.20;0.75;;;;;;;13.18;46.56;94171.53;10514425;28;20089;-75
2020/12/29 18:03:36;;;;;;;2.92;0.80;;;;;;;13.26;46.32;94189.69;10486209;28;20071;-75
2020/12/29 18:08:37;;;;;;;1.87;0.30;;;;;;;13.33;46.27;94190.06;10533103;28;20123;-75
2020/12/29 18:13:37;;;;;;;0.80;0.57;;;;;;;13.35;46.31;94206.78;10532974;28;20039;-75
2020/12/29 18:18:38;;;;;;;5.25;0.50;;;;;;;13.33;46.60;94201.66;10490229;28;20063;-75
2020/12/29 18:23:39;;;;;;;4.13;0.50;;;;;;;13.33;47.01;94203.56;10511575;28;20490;-75
2020/12/29 18:28:39;;;;;;;7.23;2.40;;;;;;;13.08;48.34;94253.47;10534112;28;20028;-74
2020/12/29 18:33:40;;;;;;;2.47;0.60;;;;;;;13.16;47.47;94223.09;10511716;28;20066;-75
2020/12/29 18:38:40;;;;;;;1.35;0.80;;;;;;;13.21;46.84;94225.66;10532011;28;20028;-74
2020/12/29 18:43:42;;;;;;;4.05;0.63;;;;;;;13.29;46.43;94221.47;10532727;28;20442;-73
2020/12/29 18:48:42;;;;;;;1.65;0.40;;;;;;;13.31;46.58;94232.75;10531734;28;20032;-75
2020/12/29 18:53:42;;;;;;;2.53;0.93;;;;;;;13.39;46.89;94233.97;10531310;28;20470;-74
2020/12/29 18:58:43;;;;;;;4.23;1.53;;;;;;;12.93;50.08;94252.66;10531741;28;20055;-74
2020/12/29 19:03:43;;;;;;;4.30;1.63;;;;;;;12.80;51.90;94237.28;10532223;28;20296;-75
2020/12/29 19:08:44;;;;;;;4.47;1.70;;;;;;;12.56;52.00;94237.44;10531225;28;20032;-75
2020/12/29 19:13:45;;;;;;;4.50;1.52;;;;;;;12.38;54.66;94247.22;10531052;28;20035;-75
2020/12/29 19:18:50;;;;;;;4.80;1.50;;;;;;;12.19;55.58;94249.97;10532352;28;20123;-77
2020/12/29 19:23:51;;;;;;;6.25;1.33;;;;;;;12.29;54.98;94244.38;10505997;28;20400;-74
2020/12/29 19:28:51;;;;;;;6.72;1.45;;;;;;;12.19;56.05;94249.97;10530938;28;20048;-75
2020/12/29 19:33:52;;;;;;;2.95;0.60;;;;;;;12.19;54.74;94249.97;10530465;28;20159;-75
2020/12/29 19:38:53;;;;;;;2.47;0.87;;;;;;;12.42;52.92;94250.91;10527306;28;20042;-73
2020/12/29 19:43:55;;;;;;;1.60;0.77;;;;;;;12.28;53.98;94253.59;10509643;28;20020;-76
2020/12/29 19:48:56;;;;;;;3.10;1.15;;;;;;;12.26;54.14;94253.06;10507076;28;20162;-75
2020/12/29 19:53:56;;;;;;;3.67;1.10;;;;;;;12.24;53.89;94242.59;10503560;28;20165;-75
2020/12/29 19:58:56;;;;;;;1.07;0.80;;;;;;;12.19;54.37;94234.59;10529792;28;20043;-74
2020/12/29 20:03:57;;;;;;;1.40;1.07;;;;;;;12.40;52.38;94232.34;10488617;28;20029;-75
2020/12/29 20:08:57;;;;;;;3.00;0.88;;;;;;;12.50;51.63;94225.16;10468826;28;20271;-75
2020/12/29 20:13:58;;;;;;;3.83;0.60;;;;;;;12.66;51.14;94242.66;10487101;28;20029;-75
2020/12/29 20:18:58;;;;;;;1.17;0.50;;;;;;;12.61;50.76;94240.88;10492269;28;20044;-75
2020/12/29 20:23:58;;;;;;;2.00;0.33;;;;;;;12.66;50.47;94253.44;10526257;28;20611;-74
2020/12/29 20:28:59;;;;;;;2.63;0.60;;;;;;;12.63;50.92;94268.31;10519419;28;20324;-74
2020/12/29 20:33:59;;;;;;;7.23;2.23;;;;;;;12.53;55.25;94281.19;10510954;28;20020;-74
2020/12/29 20:39:02;;;;;;;11.20;5.15;;;;;;;11.98;63.34;94276.44;10528215;28;20028;-74
2020/12/29 20:44:02;;;;;;;10.43;4.15;;;;;;;11.65;68.22;94295.16;10563982;28;20032;-74
2020/12/29 20:49:02;;;;;;;6.85;3.78;;;;;;;11.18;73.50;94301.16;10570915;28;20032;-75
2020/12/29 20:54:03;;;;;;;9.40;3.30;;;;;;;10.83;79.35;94321.16;10523986;28;20067;-75
2020/12/29 20:59:03;;;;;;;8.47;3.30;;;;;;;10.62;81.70;94299.88;10514040;28;20350;-75
2020/12/29 21:04:04;;;;;;;0.28;0.10;;;;;;;11.32;57.03;94295.88;10526766;28;20048;-75
2020/12/29 21:09:07;;;;;;;1.40;0.40;;;;;;;11.96;56.90;94314.44;10509793;28;20058;-75
2020/12/29 21:14:08;;;;;;;3.17;0.20;;;;;;;12.18;51.21;94303.06;10528025;28;20028;-75
2020/12/29 21:19:08;;;;;;;0.43;0.23;;;;;;;12.38;50.59;94293.81;10509846;28;20529;-76
2020/12/29 21:24:08;;;;;;;1.27;0.40;;;;;;;12.31;51.58;94285.31;10527899;28;20286;-77
2020/12/29 21:29:09;;;;;;;3.93;0.43;;;;;;;12.28;52.89;94296.69;10501340;28;20657;-76
2020/12/29 21:34:09;;;;;;;0.70;0.30;;;;;;;12.43;52.06;94315.31;10485792;28;20263;-77
2020/12/29 21:39:10;;;;;;;0.73;0.27;;;;;;;12.46;49.07;94300.41;10486268;28;20132;-76
2020/12/29 21:44:10;;;;;;;0.57;0.25;;;;;;;12.53;48.13;94287.38;10513262;28;20024;-76
2020/12/29 21:49:10;;;;;;;2.40;1.13;;;;;;;12.46;53.81;94309.31;10535522;28;20020;-76
2020/12/29 21:54:11;;;;;;;5.18;1.33;;;;;;;12.04;58.85;94311.06;10535018;28;20049;-75
2020/12/29 21:59:11;;;;;;;4.10;1.47;;;;;;;11.78;63.43;94308.72;10534228;28;20403;-76
2020/12/29 22:04:11;;;;;;;4.75;1.65;;;;;;;11.35;68.37;94314.13;10534325;28;20068;-75
2020/12/29 22:09:12;;;;;;;3.93;1.77;;;;;;;11.07;71.73;94313.91;10511671;28;20032;-75
2020/12/29 22:14:13;;;;;;;3.55;2.15;;;;;;;10.98;75.07;94310.25;10492325;28;20023;-76
2020/12/29 22:19:14;;;;;;;8.10;2.30;;;;;;;10.79;76.04;94296.75;10502474;28;20044;-75
2020/12/29 22:24:15;;;;;;;4.65;2.00;;;;;;;10.76;70.34;94313.44;10497201;28;20031;-75
2020/12/29 22:29:15;;;;;;;4.63;1.83;;;;;;;10.92;66.81;94295.25;10515113;28;20032;-75
2020/12/29 22:34:16;;;;;;;1.80;0.38;;;;;;;11.31;56.22;94290.78;10532880;28;20024;-76
2020/12/29 22:39:16;;;;;;;2.17;0.70;;;;;;;11.64;54.45;94286.31;10499407;28;20038;-76
2020/12/29 22:44:16;;;;;;;5.80;0.70;;;;;;;11.92;53.16;94264.91;10513787;28;20077;-76
2020/12/29 22:49:17;;;;;;;2.23;1.40;;;;;;;11.69;60.85;94274.66;10532114;28;20788;-76
2020/12/29 22:54:18;;;;;;;5.10;1.60;;;;;;;11.20;66.69;94268.59;10533266;28;20274;-76
2020/12/29 22:59:18;;;;;;;1.70;0.95;;;;;;;11.16;60.23;94264.88;10531760;28;20284;-75
2020/12/29 23:04:19;;;;;;;3.20;1.17;;;;;;;11.00;65.03;94259.69;10513239;28;20024;-75
2020/12/29 23:09:20;;;;;;;5.70;1.92;;;;;;;10.62;71.62;94259.56;10532218;28;20514;-76
2020/12/29 23:14:22;;;;;;;5.97;1.50;;;;;;;10.43;74.11;94262.16;10491243;28;20103;-75
2020/12/29 23:19:22;;;;;;;5.22;1.58;;;;;;;9.98;82.99;94262.25;10541506;28;20355;-76
2020/12/29 23:24:23;;;;;;;8.05;2.28;;;;;;;9.51;87.94;94269.81;10531397;28;20085;-76